createdAt,value
2022-11-16T00:01:09.038Z,6.73
2022-11-16T00:03:36.033Z,6.67
2022-11-16T00:06:04.431Z,6.40
2022-11-16T00:08:32.903Z,7.17
2022-11-16T00:11:10.317Z,6.37
2022-11-16T00:13:37.669Z,6.30
2022-11-16T00:16:05.343Z,7.00
2022-11-16T00:18:32.518Z,5.53
2022-11-16T00:20:59.859Z,5.33
2022-11-16T00:23:27.547Z,5.03
2022-11-16T00:25:54.405Z,4.50
2022-11-16T00:28:21.363Z,4.50
2022-11-16T00:30:48.174Z,3.93
2022-11-16T00:33:18.419Z,4.03
2022-11-16T00:35:45.174Z,3.67
2022-11-16T00:38:11.975Z,3.70
2022-11-16T00:40:38.815Z,3.93
2022-11-16T00:43:05.590Z,3.67
2022-11-16T00:45:32.422Z,3.73
2022-11-16T00:48:00.640Z,3.70
2022-11-16T00:50:27.659Z,3.70
2022-11-16T00:52:54.683Z,4.00
2022-11-16T00:55:21.436Z,4.07
2022-11-16T00:57:48.218Z,3.43
2022-11-16T01:00:15.618Z,4.03
2022-11-16T01:02:42.416Z,4.70
2022-11-16T01:05:09.816Z,4.73
2022-11-16T01:07:37.707Z,4.13
2022-11-16T01:10:06.223Z,4.23
2022-11-16T01:12:33.025Z,4.00
2022-11-16T01:14:59.808Z,5.03
2022-11-16T01:17:26.588Z,4.27
2022-11-16T01:19:53.438Z,5.47
2022-11-16T01:22:20.304Z,5.60
2022-11-16T01:24:47.446Z,5.63
2022-11-16T01:27:14.769Z,5.43
2022-11-16T01:29:41.591Z,4.70
2022-11-16T01:32:08.396Z,4.70
2022-11-16T01:34:35.569Z,4.87
2022-11-16T01:37:02.359Z,4.80
2022-11-16T01:39:29.209Z,4.97
2022-11-16T01:41:56.028Z,4.20
2022-11-16T01:44:31.832Z,4.23
2022-11-16T01:47:11.750Z,3.67
2022-11-16T01:49:49.888Z,4.00
2022-11-16T01:52:22.189Z,3.87
2022-11-16T01:54:50.228Z,3.57
2022-11-16T01:57:20.878Z,3.70
2022-11-16T01:59:48.089Z,3.80
2022-11-16T02:02:15.191Z,3.60
2022-11-16T02:04:42.318Z,3.40
2022-11-16T02:07:09.118Z,3.03
2022-11-16T02:09:54.085Z,4.17
2022-11-16T02:12:32.820Z,3.30
2022-11-16T02:15:21.365Z,3.60
2022-11-16T02:18:27.918Z,3.83
2022-11-16T02:21:21.836Z,3.40
2022-11-16T02:24:10.193Z,3.00
2022-11-16T02:27:08.041Z,3.00
2022-11-16T02:29:56.733Z,2.83
2022-11-16T02:32:42.073Z,3.43
2022-11-16T02:35:16.800Z,2.40
2022-11-16T02:37:50.245Z,3.30
2022-11-16T02:40:17.673Z,2.90
2022-11-16T02:42:52.864Z,2.97
2022-11-16T02:45:25.045Z,2.97
2022-11-16T02:47:52.889Z,3.43
2022-11-16T02:50:21.346Z,3.93
2022-11-16T02:52:48.109Z,3.57
2022-11-16T02:55:14.985Z,3.00
2022-11-16T02:57:49.901Z,3.07
2022-11-16T03:00:48.381Z,3.97
2022-11-16T03:03:35.352Z,2.90
2022-11-16T03:06:05.516Z,3.83
2022-11-16T03:08:42.940Z,3.53
2022-11-16T03:11:28.743Z,3.17
2022-11-16T03:14:07.490Z,3.57
2022-11-16T03:16:36.924Z,3.60
2022-11-16T03:19:06.556Z,3.40
2022-11-16T03:22:12.345Z,3.40
2022-11-16T03:24:39.141Z,3.57
2022-11-16T03:27:25.821Z,3.30
2022-11-16T03:30:12.807Z,4.03
2022-11-16T03:33:05.294Z,3.43
2022-11-16T03:35:39.068Z,3.70
2022-11-16T03:38:06.070Z,3.33
2022-11-16T03:40:33.805Z,3.37
2022-11-16T03:43:01.495Z,3.53
2022-11-16T03:45:28.741Z,3.17
2022-11-16T03:47:55.493Z,2.90
2022-11-16T03:50:22.400Z,3.03
2022-11-16T03:52:49.246Z,3.43
2022-11-16T03:55:16.193Z,3.07
2022-11-16T03:57:42.981Z,2.93
2022-11-16T04:00:10.369Z,3.20
2022-11-16T04:02:37.162Z,2.80
2022-11-16T04:05:22.558Z,2.70
2022-11-16T04:08:08.215Z,3.23
2022-11-16T04:10:53.641Z,2.87
2022-11-16T04:13:51.037Z,2.63
2022-11-16T04:16:36.545Z,2.73
2022-11-16T04:19:21.826Z,2.53
2022-11-16T04:22:12.914Z,2.70
2022-11-16T04:24:40.475Z,2.80
2022-11-16T04:27:28.174Z,3.20
2022-11-16T04:29:55.760Z,2.90
2022-11-16T04:32:41.030Z,3.10
2022-11-16T04:35:26.605Z,3.20
2022-11-16T04:37:53.692Z,2.83
2022-11-16T04:40:26.454Z,2.90
2022-11-16T04:42:53.926Z,2.97
2022-11-16T04:45:39.942Z,3.40
2022-11-16T04:48:07.008Z,2.40
2022-11-16T04:50:33.979Z,3.83
2022-11-16T04:53:00.841Z,3.03
2022-11-16T04:55:27.610Z,3.40
2022-11-16T04:57:54.498Z,2.87
2022-11-16T05:00:21.477Z,2.83
2022-11-16T05:02:48.248Z,3.30
2022-11-16T05:05:15.067Z,3.87
2022-11-16T05:07:42.234Z,3.13
2022-11-16T05:10:09.403Z,3.70
2022-11-16T05:12:36.263Z,3.00
2022-11-16T05:15:03.223Z,3.50
2022-11-16T05:17:29.999Z,3.37
2022-11-16T05:20:15.212Z,3.27
2022-11-16T05:22:42.033Z,4.20
2022-11-16T05:25:09.151Z,3.43
2022-11-16T05:27:36.107Z,2.90
2022-11-16T05:30:03.896Z,4.00
2022-11-16T05:32:30.815Z,6.23
2022-11-16T05:34:57.639Z,3.17
2022-11-16T05:37:27.292Z,3.77
2022-11-16T05:39:54.962Z,3.90
2022-11-16T05:42:21.857Z,3.83
2022-11-16T05:44:48.851Z,3.43
2022-11-16T05:47:15.700Z,4.20
2022-11-16T05:49:42.501Z,3.70
2022-11-16T05:52:09.322Z,3.50
2022-11-16T05:54:36.064Z,4.27
2022-11-16T05:57:02.852Z,4.13
2022-11-16T05:59:30.187Z,3.83
2022-11-16T06:01:57.913Z,3.83
2022-11-16T06:04:25.047Z,3.70
2022-11-16T06:06:52.189Z,4.00
2022-11-16T06:09:19.063Z,4.30
2022-11-16T06:11:45.829Z,4.27
2022-11-16T06:14:12.669Z,3.60
2022-11-16T06:16:39.510Z,3.40
2022-11-16T06:19:06.266Z,4.43
2022-11-16T06:21:33.148Z,3.77
2022-11-16T06:24:00.039Z,4.20
2022-11-16T06:26:26.904Z,5.00
2022-11-16T06:28:54.976Z,4.43
2022-11-16T06:31:22.013Z,3.70
2022-11-16T06:33:48.807Z,4.13
2022-11-16T06:36:15.570Z,4.53
2022-11-16T06:38:42.401Z,4.13
2022-11-16T06:41:09.226Z,3.50
2022-11-16T06:43:36.002Z,4.20
2022-11-16T06:46:02.872Z,3.93
2022-11-16T06:48:30.306Z,4.80
2022-11-16T06:50:57.148Z,5.00
2022-11-16T06:53:29.031Z,5.57
2022-11-16T06:56:00.254Z,4.53
2022-11-16T06:58:28.545Z,5.00
2022-11-16T07:00:55.297Z,5.17
2022-11-16T07:03:22.060Z,5.93
2022-11-16T07:05:48.874Z,4.73
2022-11-16T07:08:15.627Z,6.57
2022-11-16T07:10:42.421Z,4.83
2022-11-16T07:13:09.262Z,4.03
2022-11-16T07:15:36.089Z,4.20
2022-11-16T07:18:04.483Z,3.60
2022-11-16T07:20:31.665Z,4.70
2022-11-16T07:23:02.474Z,5.37
2022-11-16T07:25:29.245Z,4.53
2022-11-16T07:27:58.205Z,6.17
2022-11-16T07:30:25.342Z,5.07
2022-11-16T07:32:52.139Z,4.00
2022-11-16T07:35:18.965Z,5.67
2022-11-16T07:37:45.818Z,4.27
2022-11-16T07:40:12.658Z,4.47
2022-11-16T07:42:39.441Z,5.07
2022-11-16T07:45:07.298Z,4.17
2022-11-16T07:47:38.052Z,4.93
2022-11-16T07:50:06.006Z,5.57
2022-11-16T07:52:32.802Z,4.50
2022-11-16T07:54:59.656Z,4.87
2022-11-16T07:57:26.413Z,4.40
2022-11-16T07:59:53.201Z,3.93
2022-11-16T08:02:19.983Z,3.53
2022-11-16T08:04:47.186Z,3.77
2022-11-16T08:07:14.631Z,4.20
2022-11-16T08:09:41.509Z,4.83
2022-11-16T08:12:08.337Z,3.90
2022-11-16T08:14:35.147Z,4.83
2022-11-16T08:17:03.594Z,5.00
2022-11-16T08:19:30.567Z,7.00
2022-11-16T08:21:57.436Z,4.77
2022-11-16T08:24:25.151Z,6.20
2022-11-16T08:26:51.973Z,6.03
2022-11-16T08:29:18.858Z,4.93
2022-11-16T08:31:45.692Z,4.37
2022-11-16T08:34:12.560Z,4.63
2022-11-16T08:36:39.402Z,5.10
2022-11-16T08:39:06.319Z,4.67
2022-11-16T08:41:35.830Z,5.27
2022-11-16T08:44:02.673Z,5.30
2022-11-16T08:46:29.536Z,4.63
2022-11-16T08:48:57.142Z,4.27
2022-11-16T08:51:24.556Z,5.00
2022-11-16T08:53:58.197Z,4.50
2022-11-16T08:56:27.210Z,4.33
2022-11-16T08:58:58.395Z,5.00
2022-11-16T09:01:27.545Z,5.10
2022-11-16T09:03:54.598Z,4.40
2022-11-16T09:06:22.148Z,4.90
2022-11-16T09:08:48.966Z,4.50
2022-11-16T09:11:20.075Z,4.27
2022-11-16T09:13:47.462Z,4.10
2022-11-16T09:16:16.765Z,5.83
2022-11-16T09:18:45.649Z,4.67
2022-11-16T09:21:12.662Z,5.03
2022-11-16T09:23:39.470Z,5.20
2022-11-16T09:26:06.408Z,4.90
2022-11-16T09:28:33.724Z,6.20
2022-11-16T09:31:02.310Z,5.50
2022-11-16T09:33:30.423Z,6.30
2022-11-16T09:36:01.677Z,5.13
2022-11-16T09:38:40.734Z,5.97
2022-11-16T09:41:15.463Z,6.77
2022-11-16T09:43:51.054Z,6.27
2022-11-16T09:46:46.088Z,6.33
2022-11-16T09:49:53.107Z,6.00
2022-11-16T09:52:32.255Z,6.40
2022-11-16T09:55:00.405Z,5.13
2022-11-16T09:57:33.786Z,5.40
2022-11-16T10:00:09.693Z,5.27
2022-11-16T10:02:43.378Z,4.70
2022-11-16T10:05:15.999Z,4.50
2022-11-16T10:07:44.685Z,4.93
2022-11-16T10:10:18.255Z,5.13
2022-11-16T10:13:11.076Z,5.13
2022-11-16T10:15:37.871Z,5.57
2022-11-16T10:18:16.535Z,5.40
2022-11-16T10:21:09.809Z,5.27
2022-11-16T10:23:39.424Z,5.43
2022-11-16T10:26:29.032Z,5.40
2022-11-16T10:29:20.789Z,6.00
2022-11-16T10:32:17.713Z,5.53
2022-11-16T10:35:15.219Z,4.50
2022-11-16T10:37:46.825Z,4.77
2022-11-16T10:40:23.479Z,6.10
2022-11-16T10:43:14.013Z,4.70
2022-11-16T10:46:02.616Z,4.60
2022-11-16T10:48:42.635Z,4.00
2022-11-16T10:51:09.940Z,3.90
2022-11-16T10:53:40.989Z,3.60
2022-11-16T10:56:21.614Z,3.80
2022-11-16T10:58:56.185Z,5.07
2022-11-16T11:01:40.713Z,3.80
2022-11-16T11:04:24.509Z,4.30
2022-11-16T11:06:55.560Z,4.43
2022-11-16T11:09:32.835Z,4.10
2022-11-16T11:12:35.354Z,4.13
2022-11-16T11:15:06.226Z,3.77
2022-11-16T11:17:35.089Z,4.00
2022-11-16T11:20:04.212Z,3.60
2022-11-16T11:22:35.281Z,6.03
2022-11-16T11:25:03.273Z,5.13
2022-11-16T11:27:33.210Z,3.83
2022-11-16T11:30:00.109Z,4.43
2022-11-16T11:32:32.464Z,4.50
2022-11-16T11:35:00.505Z,4.73
2022-11-16T11:37:33.148Z,3.93
2022-11-16T11:40:07.083Z,4.50
2022-11-16T11:42:33.842Z,4.40
2022-11-16T11:45:11.771Z,5.17
2022-11-16T11:47:57.225Z,4.80
2022-11-16T11:50:39.119Z,4.83
2022-11-16T11:53:30.057Z,5.27
2022-11-16T11:55:59.227Z,4.43
2022-11-16T11:58:31.209Z,4.80
2022-11-16T12:01:20.718Z,4.67
2022-11-16T12:04:14.687Z,4.17
2022-11-16T12:06:50.114Z,4.73
2022-11-16T12:09:25.429Z,4.30
2022-11-16T12:12:41.443Z,4.10
2022-11-16T12:15:31.298Z,4.07
2022-11-16T12:18:13.225Z,3.97
2022-11-16T12:20:45.765Z,4.20
2022-11-16T12:23:34.579Z,3.70
2022-11-16T12:26:07.388Z,4.00
2022-11-16T12:29:06.273Z,3.97
2022-11-16T12:31:56.926Z,3.37
2022-11-16T12:34:38.033Z,3.50
2022-11-16T12:37:08.989Z,3.50
2022-11-16T12:40:07.978Z,3.57
2022-11-16T12:43:12.971Z,4.43
2022-11-16T12:46:01.257Z,4.03
2022-11-16T12:48:36.761Z,4.07
2022-11-16T12:51:31.779Z,4.07
2022-11-16T12:54:20.265Z,4.43
2022-11-16T12:57:16.378Z,3.80
2022-11-16T13:00:10.382Z,3.50
2022-11-16T13:02:39.993Z,3.63
2022-11-16T13:05:13.742Z,3.50
2022-11-16T13:08:21.448Z,4.13
2022-11-16T13:10:49.318Z,3.40
2022-11-16T13:13:35.917Z,3.97
2022-11-16T13:16:03.033Z,3.73
2022-11-16T13:18:29.898Z,3.93
2022-11-16T13:21:05.040Z,3.67
2022-11-16T13:23:32.129Z,3.33
2022-11-16T13:26:27.058Z,4.57
2022-11-16T13:29:34.150Z,4.57
2022-11-16T13:32:11.232Z,3.70
2022-11-16T13:34:38.488Z,5.03
2022-11-16T13:37:36.548Z,4.10
2022-11-16T13:40:06.033Z,4.17
2022-11-16T13:42:42.577Z,3.70
2022-11-16T13:45:17.786Z,3.70
2022-11-16T13:47:51.891Z,2.87
2022-11-16T13:50:25.182Z,3.40
2022-11-16T13:53:46.312Z,2.90
2022-11-16T13:55:46.201Z,3.50
2022-11-16T13:58:20.157Z,3.22
2022-11-16T14:01:01.843Z,3.75
2022-11-16T14:03:38.775Z,3.30
2022-11-16T14:06:07.482Z,4.22
2022-11-16T14:08:38.106Z,3.67
2022-11-16T14:11:05.685Z,3.47
2022-11-16T14:13:40.372Z,3.30
2022-11-16T14:16:22.824Z,3.13
2022-11-16T14:18:58.573Z,4.57
2022-11-16T14:21:50.443Z,4.20
2022-11-16T14:24:33.584Z,3.60
2022-11-16T14:27:06.080Z,3.70
2022-11-16T14:29:43.153Z,3.17
2022-11-16T14:32:26.137Z,3.70
2022-11-16T14:34:55.349Z,3.50
2022-11-16T14:37:22.117Z,3.40
2022-11-16T14:39:50.469Z,3.70
2022-11-16T14:42:18.337Z,3.60
2022-11-16T14:44:45.137Z,4.80
2022-11-16T14:47:23.759Z,3.43
2022-11-16T14:49:52.010Z,4.03
2022-11-16T14:52:22.213Z,5.03
2022-11-16T14:54:54.731Z,4.07
2022-11-16T14:57:23.455Z,5.17
2022-11-16T14:59:50.895Z,3.73
2022-11-16T15:02:24.741Z,3.65
2022-11-16T15:04:51.983Z,2.90
2022-11-16T15:07:19.942Z,3.50
2022-11-16T15:09:51.396Z,3.07
2022-11-16T15:12:38.025Z,3.27
2022-11-16T15:15:07.779Z,3.90
2022-11-16T15:17:43.761Z,3.33
2022-11-16T15:20:24.752Z,3.13
2022-11-16T15:22:53.204Z,3.87
2022-11-16T15:25:42.276Z,2.93
2022-11-16T15:28:18.724Z,3.53
2022-11-16T15:30:46.761Z,3.47
2022-11-16T15:33:26.488Z,3.60
2022-11-16T15:35:55.407Z,3.17
2022-11-16T15:38:32.417Z,2.90
2022-11-16T15:41:05.213Z,2.90
2022-11-16T15:43:49.808Z,3.10
2022-11-16T15:46:29.216Z,3.50
2022-11-16T15:48:58.016Z,3.00
2022-11-16T15:51:24.852Z,3.53
2022-11-16T15:54:14.166Z,3.00
2022-11-16T15:56:40.958Z,3.53
2022-11-16T15:59:13.469Z,3.43
2022-11-16T16:01:43.548Z,3.50
2022-11-16T16:04:15.141Z,3.03
2022-11-16T16:06:49.417Z,3.70
2022-11-16T16:09:26.388Z,3.33
2022-11-16T16:11:54.691Z,4.07
2022-11-16T16:14:24.369Z,3.67
2022-11-16T16:16:52.816Z,3.37
2022-11-16T16:19:36.170Z,3.50
2022-11-16T16:22:03.719Z,3.73
2022-11-16T16:24:34.661Z,2.80
2022-11-16T16:27:01.440Z,4.00
2022-11-16T16:29:28.634Z,3.10
2022-11-16T16:31:58.210Z,4.00
2022-11-16T16:34:24.978Z,3.37
2022-11-16T16:36:51.911Z,3.10
2022-11-16T16:39:18.734Z,3.90
2022-11-16T16:41:45.531Z,3.63
2022-11-16T16:44:14.329Z,3.57
2022-11-16T16:46:41.207Z,4.10
2022-11-16T16:49:08.171Z,4.27
2022-11-16T16:51:34.937Z,4.07
2022-11-16T16:54:01.703Z,3.70
2022-11-16T16:56:28.490Z,4.27
2022-11-16T16:58:55.310Z,4.60
2022-11-16T17:01:22.165Z,3.87
2022-11-16T17:03:48.953Z,4.80
2022-11-16T17:06:15.822Z,4.63
2022-11-16T17:08:42.626Z,5.10
2022-11-16T17:11:10.079Z,4.30
2022-11-16T17:13:37.094Z,4.60
2022-11-16T17:16:05.744Z,4.67
2022-11-16T17:18:32.548Z,4.00
2022-11-16T17:21:09.296Z,4.73
2022-11-16T17:23:36.574Z,3.90
2022-11-16T17:26:05.620Z,4.53
2022-11-16T17:28:32.583Z,3.97
2022-11-16T17:31:10.450Z,5.17
2022-11-16T17:33:41.473Z,4.57
2022-11-16T17:36:10.749Z,3.83
2022-11-16T17:38:37.643Z,4.27
2022-11-16T17:41:08.264Z,3.63
2022-11-16T17:43:35.538Z,3.53
2022-11-16T17:46:06.263Z,3.80
2022-11-16T17:48:33.566Z,4.27
2022-11-16T17:51:00.417Z,4.03
2022-11-16T17:53:32.346Z,3.20
2022-11-16T17:56:00.974Z,3.67
2022-11-16T17:58:28.505Z,5.00
2022-11-16T18:00:55.342Z,4.10
2022-11-16T18:03:24.136Z,3.77
2022-11-16T18:05:51.834Z,3.80
2022-11-16T18:08:18.618Z,4.30
2022-11-16T18:10:45.431Z,4.50
2022-11-16T18:13:12.188Z,5.10
2022-11-16T18:15:42.292Z,5.17
2022-11-16T18:18:09.550Z,4.53
2022-11-16T18:20:36.984Z,4.23
2022-11-16T18:23:04.521Z,4.93
2022-11-16T18:25:34.032Z,4.40
2022-11-16T18:28:00.832Z,5.37
2022-11-16T18:30:27.633Z,4.90
2022-11-16T18:32:54.549Z,4.40
2022-11-16T18:35:21.361Z,4.73
2022-11-16T18:37:49.142Z,4.43
2022-11-16T18:40:16.044Z,4.30
2022-11-16T18:42:42.831Z,5.70
2022-11-16T18:45:09.881Z,5.30
2022-11-16T18:47:36.872Z,6.20
2022-11-16T18:50:06.106Z,5.37
2022-11-16T18:52:32.876Z,5.37
2022-11-16T18:54:59.661Z,5.07
2022-11-16T18:57:26.461Z,5.00
2022-11-16T18:59:53.307Z,6.50
2022-11-16T19:02:20.155Z,5.63
2022-11-16T19:04:46.977Z,7.73
2022-11-16T19:07:13.844Z,6.33
2022-11-16T19:09:40.673Z,5.30
2022-11-16T19:12:07.578Z,5.90
2022-11-16T19:14:34.387Z,5.33
2022-11-16T19:17:01.212Z,5.43
2022-11-16T19:19:29.276Z,5.67
2022-11-16T19:21:57.034Z,5.67
2022-11-16T19:24:23.875Z,6.03
2022-11-16T19:26:50.757Z,5.07
2022-11-16T19:29:17.545Z,5.97
2022-11-16T19:31:44.310Z,5.60
2022-11-16T19:34:11.521Z,7.00
2022-11-16T19:36:38.397Z,6.20
2022-11-16T19:39:05.295Z,5.73
2022-11-16T19:41:32.336Z,5.43
2022-11-16T19:44:00.218Z,5.27
2022-11-16T19:46:30.051Z,6.23
2022-11-16T19:48:57.002Z,5.33
2022-11-16T19:51:25.431Z,5.43
2022-11-16T19:53:52.385Z,4.67
2022-11-16T19:56:20.084Z,4.93
2022-11-16T19:58:46.979Z,4.80
2022-11-16T20:01:17.558Z,5.97
2022-11-16T20:03:45.137Z,5.30
2022-11-16T20:06:13.642Z,5.00
2022-11-16T20:08:41.081Z,6.07
2022-11-16T20:11:20.233Z,4.33
2022-11-16T20:13:47.892Z,5.07
2022-11-16T20:16:14.815Z,4.40
2022-11-16T20:18:42.023Z,5.00
2022-11-16T20:21:33.320Z,4.33
2022-11-16T20:24:06.164Z,4.73
2022-11-16T20:26:33.884Z,4.87
2022-11-16T20:29:00.726Z,5.13
2022-11-16T20:31:29.176Z,5.13
2022-11-16T20:34:03.113Z,4.53
2022-11-16T20:36:30.934Z,4.23
2022-11-16T20:38:58.084Z,4.17
2022-11-16T20:41:26.244Z,4.57
2022-11-16T20:43:54.361Z,4.70
2022-11-16T20:46:22.907Z,5.60
2022-11-16T20:48:49.728Z,4.77
2022-11-16T20:51:18.009Z,4.07
2022-11-16T20:53:45.661Z,4.70
2022-11-16T20:56:12.492Z,4.47
2022-11-16T20:58:39.479Z,5.17
2022-11-16T21:01:14.402Z,4.17
2022-11-16T21:03:42.561Z,4.63
2022-11-16T21:06:09.396Z,4.80
2022-11-16T21:08:36.634Z,4.07
2022-11-16T21:11:09.396Z,4.63
2022-11-16T21:13:55.013Z,3.77
2022-11-16T21:16:21.840Z,4.20
2022-11-16T21:18:48.625Z,4.07
2022-11-16T21:21:15.547Z,3.87
2022-11-16T21:23:44.992Z,4.43
2022-11-16T21:26:12.745Z,4.53
2022-11-16T21:28:39.685Z,5.27
2022-11-16T21:31:17.711Z,5.43
2022-11-16T21:33:45.020Z,4.93
2022-11-16T21:36:15.213Z,3.67
2022-11-16T21:38:42.144Z,4.73
2022-11-16T21:41:09.782Z,4.03
2022-11-16T21:43:37.250Z,4.07
2022-11-16T21:46:09.860Z,4.23
2022-11-16T21:48:36.658Z,3.83
2022-11-16T21:51:05.325Z,3.80
2022-11-16T21:53:32.579Z,3.90
2022-11-16T21:55:59.626Z,3.90
2022-11-16T21:58:26.645Z,3.77
2022-11-16T22:00:57.322Z,3.33
2022-11-16T22:03:24.989Z,3.13
2022-11-16T22:06:12.028Z,3.30
2022-11-16T22:08:38.889Z,3.60
2022-11-16T22:11:06.130Z,3.13
2022-11-16T22:13:33.187Z,2.87
2022-11-16T22:16:07.494Z,3.10
2022-11-16T22:18:34.364Z,2.53
2022-11-16T22:21:01.429Z,2.70
2022-11-16T22:23:28.427Z,2.47
2022-11-16T22:25:55.488Z,2.73
2022-11-16T22:28:22.269Z,2.70
2022-11-16T22:30:51.895Z,2.60
2022-11-16T22:33:19.203Z,2.40
2022-11-16T22:35:47.064Z,2.30
2022-11-16T22:38:13.849Z,3.03
2022-11-16T22:40:40.654Z,2.40
2022-11-16T22:43:07.428Z,2.17
2022-11-16T22:45:34.248Z,2.10
2022-11-16T22:48:01.053Z,2.00
2022-11-16T22:50:27.922Z,1.93
2022-11-16T22:52:57.955Z,1.80
2022-11-16T22:55:24.748Z,2.00
2022-11-16T22:57:52.049Z,2.00
2022-11-16T23:00:19.101Z,1.70
2022-11-16T23:02:45.882Z,2.30
2022-11-16T23:05:12.897Z,1.90
2022-11-16T23:07:42.794Z,2.13
2022-11-16T23:10:11.034Z,1.83
2022-11-16T23:12:56.533Z,2.00
2022-11-16T23:15:42.030Z,1.90
2022-11-16T23:18:08.851Z,1.77
2022-11-16T23:20:54.403Z,1.80
2022-11-16T23:23:39.819Z,1.87
2022-11-16T23:26:30.622Z,1.77
2022-11-16T23:28:57.522Z,1.83
2022-11-16T23:31:24.905Z,2.37
2022-11-16T23:33:51.700Z,1.43
2022-11-16T23:36:18.480Z,1.27
2022-11-16T23:38:45.271Z,1.40
2022-11-16T23:41:30.711Z,1.67
2022-11-16T23:43:58.527Z,1.63
2022-11-16T23:46:26.824Z,1.77
2022-11-16T23:48:53.737Z,2.73
2022-11-16T23:51:20.553Z,1.70
2022-11-16T23:53:47.369Z,2.13
2022-11-16T23:56:14.230Z,1.83
2022-11-16T23:58:40.993Z,1.87
